sensor_id;sensor_type;location;lat;lon;timestamp;P1;durP1;ratioP1;P2;durP2;ratioP2
19329;SDS011;9799;48.214;16.388;2022-10-19T00:00:20;12.48;;;10.63;;
19329;SDS011;9799;48.214;16.388;2022-10-19T00:03:43;14.87;;;12.00;;
19329;SDS011;9799;48.214;16.388;2022-10-19T00:07:06;19.00;;;12.63;;
19329;SDS011;9799;48.214;16.388;2022-10-19T00:10:28;14.87;;;12.00;;
19329;SDS011;9799;48.214;16.388;2022-10-19T00:13:49;15.97;;;12.13;;
19329;SDS011;9799;48.214;16.388;2022-10-19T00:17:10;16.20;;;12.13;;
19329;SDS011;9799;48.214;16.388;2022-10-19T00:20:32;16.63;;;13.47;;
19329;SDS011;9799;48.214;16.388;2022-10-19T00:23:54;14.90;;;13.30;;
19329;SDS011;9799;48.214;16.388;2022-10-19T00:27:15;14.47;;;12.67;;
19329;SDS011;9799;48.214;16.388;2022-10-19T00:30:37;17.80;;;13.07;;
19329;SDS011;9799;48.214;16.388;2022-10-19T00:33:58;17.03;;;13.10;;
19329;SDS011;9799;48.214;16.388;2022-10-19T00:37:21;16.83;;;13.87;;
19329;SDS011;9799;48.214;16.388;2022-10-19T00:40:42;19.53;;;13.73;;
19329;SDS011;9799;48.214;16.388;2022-10-19T00:44:04;15.70;;;12.73;;
19329;SDS011;9799;48.214;16.388;2022-10-19T00:47:27;15.53;;;13.07;;
19329;SDS011;9799;48.214;16.388;2022-10-19T00:50:49;16.27;;;12.67;;
19329;SDS011;9799;48.214;16.388;2022-10-19T00:54:13;14.60;;;12.30;;
19329;SDS011;9799;48.214;16.388;2022-10-19T00:57:37;14.97;;;11.63;;
19329;SDS011;9799;48.214;16.388;2022-10-19T01:00:59;14.33;;;11.57;;
19329;SDS011;9799;48.214;16.388;2022-10-19T01:04:24;14.07;;;12.33;;
19329;SDS011;9799;48.214;16.388;2022-10-19T01:07:46;14.50;;;12.37;;
19329;SDS011;9799;48.214;16.388;2022-10-19T01:11:13;12.67;;;11.30;;
19329;SDS011;9799;48.214;16.388;2022-10-19T01:14:45;13.70;;;11.07;;
19329;SDS011;9799;48.214;16.388;2022-10-19T01:18:17;12.67;;;10.87;;
19329;SDS011;9799;48.214;16.388;2022-10-19T01:21:41;13.27;;;11.50;;
19329;SDS011;9799;48.214;16.388;2022-10-19T01:25:09;14.20;;;11.33;;
19329;SDS011;9799;48.214;16.388;2022-10-19T01:28:44;14.40;;;11.63;;
19329;SDS011;9799;48.214;16.388;2022-10-19T01:32:15;12.10;;;10.73;;
19329;SDS011;9799;48.214;16.388;2022-10-19T01:35:44;11.83;;;10.20;;
19329;SDS011;9799;48.214;16.388;2022-10-19T01:39:11;11.77;;;9.73;;
19329;SDS011;9799;48.214;16.388;2022-10-19T01:42:39;13.10;;;9.70;;
19329;SDS011;9799;48.214;16.388;2022-10-19T01:46:05;12.43;;;9.53;;
19329;SDS011;9799;48.214;16.388;2022-10-19T01:49:34;10.00;;;8.73;;
19329;SDS011;9799;48.214;16.388;2022-10-19T01:53:01;11.73;;;9.73;;
19329;SDS011;9799;48.214;16.388;2022-10-19T01:56:25;10.17;;;9.00;;
19329;SDS011;9799;48.214;16.388;2022-10-19T01:59:48;9.77;;;8.67;;
19329;SDS011;9799;48.214;16.388;2022-10-19T02:03:10;9.80;;;7.83;;
19329;SDS011;9799;48.214;16.388;2022-10-19T02:06:34;10.80;;;8.83;;
19329;SDS011;9799;48.214;16.388;2022-10-19T02:09:56;8.67;;;7.50;;
19329;SDS011;9799;48.214;16.388;2022-10-19T02:13:17;10.77;;;8.07;;
19329;SDS011;9799;48.214;16.388;2022-10-19T02:16:41;9.83;;;8.10;;
19329;SDS011;9799;48.214;16.388;2022-10-19T02:20:07;9.50;;;8.03;;
19329;SDS011;9799;48.214;16.388;2022-10-19T02:23:30;8.43;;;7.03;;
19329;SDS011;9799;48.214;16.388;2022-10-19T02:26:52;9.53;;;7.63;;
19329;SDS011;9799;48.214;16.388;2022-10-19T02:30:14;9.93;;;7.90;;
19329;SDS011;9799;48.214;16.388;2022-10-19T02:33:37;8.40;;;7.50;;
19329;SDS011;9799;48.214;16.388;2022-10-19T02:36:58;9.53;;;7.83;;
19329;SDS011;9799;48.214;16.388;2022-10-19T02:40:21;9.83;;;7.70;;
19329;SDS011;9799;48.214;16.388;2022-10-19T02:43:46;8.90;;;7.50;;
19329;SDS011;9799;48.214;16.388;2022-10-19T02:47:10;9.30;;;8.10;;
19329;SDS011;9799;48.214;16.388;2022-10-19T02:50:34;9.73;;;8.10;;
19329;SDS011;9799;48.214;16.388;2022-10-19T02:53:56;8.80;;;7.27;;
19329;SDS011;9799;48.214;16.388;2022-10-19T02:57:19;9.63;;;7.83;;
19329;SDS011;9799;48.214;16.388;2022-10-19T03:00:42;8.60;;;7.70;;
19329;SDS011;9799;48.214;16.388;2022-10-19T03:04:03;8.77;;;7.53;;
19329;SDS011;9799;48.214;16.388;2022-10-19T03:07:24;7.93;;;6.97;;
19329;SDS011;9799;48.214;16.388;2022-10-19T03:10:45;7.83;;;6.90;;
19329;SDS011;9799;48.214;16.388;2022-10-19T03:14:08;8.93;;;7.40;;
19329;SDS011;9799;48.214;16.388;2022-10-19T03:17:29;7.27;;;6.30;;
19329;SDS011;9799;48.214;16.388;2022-10-19T03:20:59;6.93;;;6.23;;
19329;SDS011;9799;48.214;16.388;2022-10-19T03:24:21;6.80;;;6.03;;
19329;SDS011;9799;48.214;16.388;2022-10-19T03:27:43;8.43;;;6.43;;
19329;SDS011;9799;48.214;16.388;2022-10-19T03:31:05;7.77;;;6.67;;
19329;SDS011;9799;48.214;16.388;2022-10-19T03:34:26;7.53;;;6.73;;
19329;SDS011;9799;48.214;16.388;2022-10-19T03:37:47;6.60;;;5.93;;
19329;SDS011;9799;48.214;16.388;2022-10-19T03:41:09;5.50;;;5.00;;
19329;SDS011;9799;48.214;16.388;2022-10-19T03:44:30;7.90;;;6.50;;
19329;SDS011;9799;48.214;16.388;2022-10-19T03:47:52;8.70;;;6.13;;
19329;SDS011;9799;48.214;16.388;2022-10-19T03:51:14;7.07;;;6.37;;
19329;SDS011;9799;48.214;16.388;2022-10-19T03:54:37;6.47;;;5.80;;
19329;SDS011;9799;48.214;16.388;2022-10-19T03:57:58;6.57;;;5.70;;
19329;SDS011;9799;48.214;16.388;2022-10-19T04:01:19;7.97;;;6.83;;
19329;SDS011;9799;48.214;16.388;2022-10-19T04:04:43;7.40;;;5.97;;
19329;SDS011;9799;48.214;16.388;2022-10-19T04:08:04;7.50;;;6.53;;
19329;SDS011;9799;48.214;16.388;2022-10-19T04:11:26;7.13;;;5.87;;
19329;SDS011;9799;48.214;16.388;2022-10-19T04:14:49;11.63;;;6.20;;
19329;SDS011;9799;48.214;16.388;2022-10-19T04:18:10;6.07;;;5.37;;
19329;SDS011;9799;48.214;16.388;2022-10-19T04:21:34;7.93;;;5.70;;
19329;SDS011;9799;48.214;16.388;2022-10-19T04:24:56;9.23;;;5.90;;
19329;SDS011;9799;48.214;16.388;2022-10-19T04:28:17;6.83;;;5.83;;
19329;SDS011;9799;48.214;16.388;2022-10-19T04:31:38;11.83;;;6.00;;
19329;SDS011;9799;48.214;16.388;2022-10-19T04:35:00;7.07;;;6.23;;
19329;SDS011;9799;48.214;16.388;2022-10-19T04:38:22;7.50;;;6.20;;
19329;SDS011;9799;48.214;16.388;2022-10-19T04:41:44;8.13;;;6.50;;
19329;SDS011;9799;48.214;16.388;2022-10-19T04:45:05;6.90;;;6.20;;
19329;SDS011;9799;48.214;16.388;2022-10-19T04:48:27;6.93;;;6.23;;
19329;SDS011;9799;48.214;16.388;2022-10-19T04:51:48;7.97;;;6.20;;
19329;SDS011;9799;48.214;16.388;2022-10-19T04:55:10;7.67;;;6.10;;
19329;SDS011;9799;48.214;16.388;2022-10-19T04:58:31;7.20;;;5.90;;
19329;SDS011;9799;48.214;16.388;2022-10-19T05:01:53;6.67;;;5.97;;
19329;SDS011;9799;48.214;16.388;2022-10-19T05:05:14;7.10;;;6.23;;
19329;SDS011;9799;48.214;16.388;2022-10-19T05:08:35;7.23;;;6.33;;
19329;SDS011;9799;48.214;16.388;2022-10-19T05:11:58;6.10;;;5.20;;
19329;SDS011;9799;48.214;16.388;2022-10-19T05:15:19;6.37;;;5.77;;
19329;SDS011;9799;48.214;16.388;2022-10-19T05:18:41;6.73;;;5.00;;
19329;SDS011;9799;48.214;16.388;2022-10-19T05:22:02;7.70;;;6.10;;
19329;SDS011;9799;48.214;16.388;2022-10-19T05:25:23;8.50;;;5.73;;
19329;SDS011;9799;48.214;16.388;2022-10-19T05:28:47;8.37;;;6.27;;
19329;SDS011;9799;48.214;16.388;2022-10-19T05:32:09;7.17;;;5.97;;
19329;SDS011;9799;48.214;16.388;2022-10-19T05:35:30;7.60;;;5.97;;
19329;SDS011;9799;48.214;16.388;2022-10-19T05:38:52;10.07;;;6.07;;
19329;SDS011;9799;48.214;16.388;2022-10-19T05:42:14;5.43;;;4.70;;
19329;SDS011;9799;48.214;16.388;2022-10-19T05:45:37;6.90;;;5.47;;
19329;SDS011;9799;48.214;16.388;2022-10-19T05:48:58;9.63;;;5.43;;
19329;SDS011;9799;48.214;16.388;2022-10-19T05:52:19;9.43;;;6.20;;
19329;SDS011;9799;48.214;16.388;2022-10-19T05:55:41;6.30;;;5.27;;
19329;SDS011;9799;48.214;16.388;2022-10-19T05:59:04;7.00;;;6.30;;
19329;SDS011;9799;48.214;16.388;2022-10-19T06:02:28;11.63;;;5.60;;
19329;SDS011;9799;48.214;16.388;2022-10-19T06:05:51;7.00;;;5.57;;
19329;SDS011;9799;48.214;16.388;2022-10-19T06:09:13;7.27;;;5.67;;
19329;SDS011;9799;48.214;16.388;2022-10-19T06:12:34;5.83;;;5.20;;
19329;SDS011;9799;48.214;16.388;2022-10-19T06:15:55;8.57;;;5.50;;
19329;SDS011;9799;48.214;16.388;2022-10-19T06:19:17;6.50;;;5.30;;
19329;SDS011;9799;48.214;16.388;2022-10-19T06:22:38;9.27;;;5.27;;
19329;SDS011;9799;48.214;16.388;2022-10-19T06:26:01;9.10;;;6.03;;
19329;SDS011;9799;48.214;16.388;2022-10-19T06:29:23;7.90;;;5.47;;
19329;SDS011;9799;48.214;16.388;2022-10-19T06:32:44;6.33;;;4.87;;
19329;SDS011;9799;48.214;16.388;2022-10-19T06:36:07;7.13;;;5.50;;
19329;SDS011;9799;48.214;16.388;2022-10-19T06:39:29;7.47;;;6.10;;
19329;SDS011;9799;48.214;16.388;2022-10-19T06:42:50;9.53;;;8.53;;
19329;SDS011;9799;48.214;16.388;2022-10-19T06:46:13;10.93;;;5.90;;
19329;SDS011;9799;48.214;16.388;2022-10-19T06:49:38;6.73;;;5.60;;
19329;SDS011;9799;48.214;16.388;2022-10-19T06:53:01;6.60;;;5.43;;
19329;SDS011;9799;48.214;16.388;2022-10-19T06:56:22;8.73;;;5.37;;
19329;SDS011;9799;48.214;16.388;2022-10-19T06:59:43;5.87;;;5.20;;
19329;SDS011;9799;48.214;16.388;2022-10-19T07:03:05;8.80;;;4.97;;
19329;SDS011;9799;48.214;16.388;2022-10-19T07:06:26;5.97;;;5.03;;
19329;SDS011;9799;48.214;16.388;2022-10-19T07:09:49;5.83;;;4.87;;
19329;SDS011;9799;48.214;16.388;2022-10-19T07:13:11;5.83;;;5.23;;
19329;SDS011;9799;48.214;16.388;2022-10-19T07:16:33;7.17;;;4.90;;
19329;SDS011;9799;48.214;16.388;2022-10-19T07:19:54;6.03;;;4.73;;
19329;SDS011;9799;48.214;16.388;2022-10-19T07:23:15;5.93;;;4.60;;
19329;SDS011;9799;48.214;16.388;2022-10-19T07:26:37;5.40;;;4.67;;
19329;SDS011;9799;48.214;16.388;2022-10-19T07:29:58;4.70;;;3.93;;
19329;SDS011;9799;48.214;16.388;2022-10-19T07:33:19;4.93;;;4.20;;
19329;SDS011;9799;48.214;16.388;2022-10-19T07:36:42;5.50;;;4.50;;
19329;SDS011;9799;48.214;16.388;2022-10-19T07:40:06;5.00;;;4.23;;
19329;SDS011;9799;48.214;16.388;2022-10-19T07:43:30;7.50;;;4.03;;
19329;SDS011;9799;48.214;16.388;2022-10-19T07:46:51;5.47;;;4.60;;
19329;SDS011;9799;48.214;16.388;2022-10-19T07:50:12;7.73;;;4.50;;
19329;SDS011;9799;48.214;16.388;2022-10-19T07:53:33;4.23;;;3.70;;
19329;SDS011;9799;48.214;16.388;2022-10-19T07:56:55;6.27;;;3.93;;
19329;SDS011;9799;48.214;16.388;2022-10-19T08:00:17;4.60;;;4.13;;
19329;SDS011;9799;48.214;16.388;2022-10-19T08:03:39;5.00;;;4.50;;
19329;SDS011;9799;48.214;16.388;2022-10-19T08:07:00;4.20;;;3.70;;
19329;SDS011;9799;48.214;16.388;2022-10-19T08:10:21;4.20;;;3.80;;
19329;SDS011;9799;48.214;16.388;2022-10-19T08:13:43;6.00;;;4.20;;
19329;SDS011;9799;48.214;16.388;2022-10-19T08:17:06;4.53;;;4.03;;
19329;SDS011;9799;48.214;16.388;2022-10-19T08:20:30;5.50;;;3.63;;
19329;SDS011;9799;48.214;16.388;2022-10-19T08:23:51;5.03;;;4.07;;
19329;SDS011;9799;48.214;16.388;2022-10-19T08:27:12;4.40;;;3.93;;
19329;SDS011;9799;48.214;16.388;2022-10-19T08:30:34;4.77;;;4.37;;
19329;SDS011;9799;48.214;16.388;2022-10-19T08:33:59;6.33;;;4.33;;
19329;SDS011;9799;48.214;16.388;2022-10-19T08:37:20;6.37;;;4.27;;
19329;SDS011;9799;48.214;16.388;2022-10-19T08:40:43;8.77;;;4.83;;
19329;SDS011;9799;48.214;16.388;2022-10-19T08:44:15;5.10;;;3.73;;
19329;SDS011;9799;48.214;16.388;2022-10-19T08:47:56;5.33;;;4.57;;
19329;SDS011;9799;48.214;16.388;2022-10-19T08:51:21;6.23;;;4.73;;
19329;SDS011;9799;48.214;16.388;2022-10-19T08:54:45;4.77;;;4.00;;
19329;SDS011;9799;48.214;16.388;2022-10-19T08:58:18;4.77;;;4.37;;
19329;SDS011;9799;48.214;16.388;2022-10-19T09:01:46;9.40;;;4.67;;
19329;SDS011;9799;48.214;16.388;2022-10-19T09:05:13;4.90;;;4.23;;
19329;SDS011;9799;48.214;16.388;2022-10-19T09:08:42;4.90;;;4.27;;
19329;SDS011;9799;48.214;16.388;2022-10-19T09:12:03;5.93;;;4.70;;
19329;SDS011;9799;48.214;16.388;2022-10-19T09:15:27;6.77;;;5.37;;
19329;SDS011;9799;48.214;16.388;2022-10-19T09:18:53;5.93;;;4.97;;
19329;SDS011;9799;48.214;16.388;2022-10-19T09:22:16;4.50;;;4.10;;
19329;SDS011;9799;48.214;16.388;2022-10-19T09:25:41;13.77;;;11.50;;
19329;SDS011;9799;48.214;16.388;2022-10-19T09:29:04;7.63;;;5.67;;
19329;SDS011;9799;48.214;16.388;2022-10-19T09:32:31;4.87;;;4.37;;
19329;SDS011;9799;48.214;16.388;2022-10-19T09:35:55;7.60;;;4.50;;
19329;SDS011;9799;48.214;16.388;2022-10-19T09:39:18;5.37;;;4.50;;
19329;SDS011;9799;48.214;16.388;2022-10-19T09:42:41;7.47;;;5.23;;
19329;SDS011;9799;48.214;16.388;2022-10-19T09:46:03;7.50;;;4.77;;
19329;SDS011;9799;48.214;16.388;2022-10-19T09:49:37;5.67;;;5.07;;
19329;SDS011;9799;48.214;16.388;2022-10-19T09:53:01;4.77;;;4.27;;
19329;SDS011;9799;48.214;16.388;2022-10-19T09:56:24;6.00;;;5.40;;
19329;SDS011;9799;48.214;16.388;2022-10-19T09:59:49;5.80;;;4.83;;
19329;SDS011;9799;48.214;16.388;2022-10-19T10:03:21;5.03;;;4.50;;
19329;SDS011;9799;48.214;16.388;2022-10-19T10:06:45;5.17;;;4.67;;
19329;SDS011;9799;48.214;16.388;2022-10-19T10:10:08;5.17;;;4.67;;
19329;SDS011;9799;48.214;16.388;2022-10-19T10:13:33;4.87;;;4.33;;
19329;SDS011;9799;48.214;16.388;2022-10-19T10:17:03;5.57;;;4.90;;
19329;SDS011;9799;48.214;16.388;2022-10-19T10:20:31;6.77;;;5.67;;
19329;SDS011;9799;48.214;16.388;2022-10-19T10:23:59;4.70;;;4.30;;
19329;SDS011;9799;48.214;16.388;2022-10-19T10:27:26;9.70;;;5.00;;
19329;SDS011;9799;48.214;16.388;2022-10-19T10:30:52;5.77;;;5.27;;
19329;SDS011;9799;48.214;16.388;2022-10-19T10:34:21;5.40;;;4.83;;
19329;SDS011;9799;48.214;16.388;2022-10-19T10:37:51;6.80;;;5.43;;
19329;SDS011;9799;48.214;16.388;2022-10-19T10:41:23;5.77;;;5.17;;
19329;SDS011;9799;48.214;16.388;2022-10-19T10:44:49;5.70;;;5.20;;
19329;SDS011;9799;48.214;16.388;2022-10-19T10:48:18;5.77;;;5.07;;
19329;SDS011;9799;48.214;16.388;2022-10-19T10:51:49;5.63;;;5.10;;
19329;SDS011;9799;48.214;16.388;2022-10-19T10:55:14;6.83;;;5.00;;
19329;SDS011;9799;48.214;16.388;2022-10-19T10:58:38;5.57;;;5.07;;
19329;SDS011;9799;48.214;16.388;2022-10-19T11:02:10;5.83;;;5.30;;
19329;SDS011;9799;48.214;16.388;2022-10-19T11:05:39;6.90;;;5.10;;
19329;SDS011;9799;48.214;16.388;2022-10-19T11:09:07;5.60;;;5.10;;
19329;SDS011;9799;48.214;16.388;2022-10-19T11:12:35;6.10;;;5.50;;
19329;SDS011;9799;48.214;16.388;2022-10-19T11:15:59;5.20;;;4.70;;
19329;SDS011;9799;48.214;16.388;2022-10-19T11:19:26;8.40;;;5.27;;
19329;SDS011;9799;48.214;16.388;2022-10-19T11:22:52;5.90;;;5.28;;
19329;SDS011;9799;48.214;16.388;2022-10-19T11:26:32;4.93;;;4.43;;
19329;SDS011;9799;48.214;16.388;2022-10-19T11:30:05;5.77;;;5.27;;
19329;SDS011;9799;48.214;16.388;2022-10-19T11:33:34;4.40;;;4.00;;
19329;SDS011;9799;48.214;16.388;2022-10-19T11:37:09;5.50;;;5.00;;
19329;SDS011;9799;48.214;16.388;2022-10-19T11:40:39;7.70;;;4.53;;
19329;SDS011;9799;48.214;16.388;2022-10-19T11:44:14;4.43;;;4.03;;
19329;SDS011;9799;48.214;16.388;2022-10-19T11:47:54;4.57;;;4.18;;
19329;SDS011;9799;48.214;16.388;2022-10-19T11:51:35;4.28;;;3.88;;
19329;SDS011;9799;48.214;16.388;2022-10-19T11:55:01;4.65;;;4.22;;
19329;SDS011;9799;48.214;16.388;2022-10-19T11:58:42;6.15;;;4.45;;
19329;SDS011;9799;48.214;16.388;2022-10-19T12:02:14;4.50;;;4.10;;
19329;SDS011;9799;48.214;16.388;2022-10-19T12:06:00;7.90;;;5.00;;
19329;SDS011;9799;48.214;16.388;2022-10-19T12:09:33;6.57;;;4.80;;
19329;SDS011;9799;48.214;16.388;2022-10-19T12:13:03;5.90;;;4.77;;
19329;SDS011;9799;48.214;16.388;2022-10-19T12:16:29;11.15;;;3.75;;
19329;SDS011;9799;48.214;16.388;2022-10-19T12:19:59;4.70;;;4.30;;
19329;SDS011;9799;48.214;16.388;2022-10-19T12:23:25;4.90;;;4.30;;
19329;SDS011;9799;48.214;16.388;2022-10-19T12:26:50;5.25;;;3.63;;
19329;SDS011;9799;48.214;16.388;2022-10-19T12:30:13;4.03;;;3.63;;
19329;SDS011;9799;48.214;16.388;2022-10-19T12:33:40;4.95;;;4.22;;
19329;SDS011;9799;48.214;16.388;2022-10-19T12:37:09;5.60;;;4.28;;
19329;SDS011;9799;48.214;16.388;2022-10-19T12:40:36;6.72;;;5.47;;
19329;SDS011;9799;48.214;16.388;2022-10-19T12:44:05;10.38;;;6.03;;
19329;SDS011;9799;48.214;16.388;2022-10-19T12:47:40;8.63;;;6.45;;
19329;SDS011;9799;48.214;16.388;2022-10-19T12:51:43;6.78;;;6.18;;
19329;SDS011;9799;48.214;16.388;2022-10-19T12:55:24;10.20;;;8.60;;
19329;SDS011;9799;48.214;16.388;2022-10-19T12:58:53;14.25;;;7.72;;
19329;SDS011;9799;48.214;16.388;2022-10-19T13:02:23;10.10;;;7.30;;
19329;SDS011;9799;48.214;16.388;2022-10-19T13:05:55;8.52;;;7.55;;
19329;SDS011;9799;48.214;16.388;2022-10-19T13:09:20;8.05;;;7.25;;
19329;SDS011;9799;48.214;16.388;2022-10-19T13:12:44;8.55;;;7.40;;
19329;SDS011;9799;48.214;16.388;2022-10-19T13:24:23;7.67;;;6.97;;
19329;SDS011;9799;48.214;16.388;2022-10-19T13:27:54;7.57;;;6.80;;
19329;SDS011;9799;48.214;16.388;2022-10-19T13:31:23;12.53;;;8.00;;
19329;SDS011;9799;48.214;16.388;2022-10-19T13:34:45;7.90;;;7.05;;
19329;SDS011;9799;48.214;16.388;2022-10-19T13:38:21;11.65;;;7.55;;
19329;SDS011;9799;48.214;16.388;2022-10-19T13:45:20;7.93;;;6.47;;
19329;SDS011;9799;48.214;16.388;2022-10-19T13:48:56;8.07;;;7.28;;
19329;SDS011;9799;48.214;16.388;2022-10-19T13:52:41;7.55;;;6.68;;
19329;SDS011;9799;48.214;16.388;2022-10-19T13:56:20;9.43;;;6.80;;
19329;SDS011;9799;48.214;16.388;2022-10-19T13:59:58;10.23;;;6.47;;
19329;SDS011;9799;48.214;16.388;2022-10-19T14:03:34;8.60;;;6.47;;
19329;SDS011;9799;48.214;16.388;2022-10-19T14:07:11;7.60;;;6.60;;
19329;SDS011;9799;48.214;16.388;2022-10-19T14:10:34;8.10;;;6.33;;
19329;SDS011;9799;48.214;16.388;2022-10-19T14:14:07;8.05;;;6.70;;
19329;SDS011;9799;48.214;16.388;2022-10-19T14:17:38;9.57;;;7.07;;
19329;SDS011;9799;48.214;16.388;2022-10-19T14:21:01;10.65;;;7.55;;
19329;SDS011;9799;48.214;16.388;2022-10-19T14:24:26;11.55;;;6.95;;
19329;SDS011;9799;48.214;16.388;2022-10-19T14:27:50;14.63;;;7.40;;
19329;SDS011;9799;48.214;16.388;2022-10-19T14:31:19;13.20;;;6.93;;
19329;SDS011;9799;48.214;16.388;2022-10-19T14:34:45;8.17;;;6.43;;
19329;SDS011;9799;48.214;16.388;2022-10-19T14:38:07;11.30;;;6.80;;
19329;SDS011;9799;48.214;16.388;2022-10-19T14:41:37;7.20;;;6.37;;
19329;SDS011;9799;48.214;16.388;2022-10-19T14:44:59;10.87;;;6.17;;
19329;SDS011;9799;48.214;16.388;2022-10-19T14:48:21;11.17;;;7.87;;
19329;SDS011;9799;48.214;16.388;2022-10-19T14:51:44;11.63;;;6.93;;
19329;SDS011;9799;48.214;16.388;2022-10-19T14:55:12;8.23;;;6.67;;
19329;SDS011;9799;48.214;16.388;2022-10-19T14:58:37;8.43;;;6.53;;
19329;SDS011;9799;48.214;16.388;2022-10-19T15:02:01;11.10;;;6.70;;
19329;SDS011;9799;48.214;16.388;2022-10-19T15:05:32;10.53;;;7.63;;
19329;SDS011;9799;48.214;16.388;2022-10-19T15:08:56;13.00;;;6.47;;
19329;SDS011;9799;48.214;16.388;2022-10-19T15:12:21;9.40;;;5.83;;
19329;SDS011;9799;48.214;16.388;2022-10-19T15:15:46;8.87;;;6.20;;
19329;SDS011;9799;48.214;16.388;2022-10-19T15:19:17;9.40;;;5.97;;
19329;SDS011;9799;48.214;16.388;2022-10-19T15:22:47;6.43;;;5.63;;
19329;SDS011;9799;48.214;16.388;2022-10-19T15:26:15;5.50;;;5.00;;
19329;SDS011;9799;48.214;16.388;2022-10-19T15:29:39;6.63;;;5.60;;
19329;SDS011;9799;48.214;16.388;2022-10-19T15:33:13;6.67;;;5.53;;
19329;SDS011;9799;48.214;16.388;2022-10-19T15:36:34;7.27;;;5.63;;
19329;SDS011;9799;48.214;16.388;2022-10-19T15:39:55;7.13;;;4.93;;
19329;SDS011;9799;48.214;16.388;2022-10-19T15:43:41;8.67;;;5.17;;
19329;SDS011;9799;48.214;16.388;2022-10-19T15:47:13;8.30;;;5.07;;
19329;SDS011;9799;48.214;16.388;2022-10-19T15:50:41;7.77;;;4.97;;
19329;SDS011;9799;48.214;16.388;2022-10-19T15:54:04;7.07;;;4.27;;
19329;SDS011;9799;48.214;16.388;2022-10-19T15:57:27;9.70;;;4.70;;
19329;SDS011;9799;48.214;16.388;2022-10-19T16:00:52;10.80;;;4.57;;
19329;SDS011;9799;48.214;16.388;2022-10-19T16:04:13;6.90;;;4.70;;
19329;SDS011;9799;48.214;16.388;2022-10-19T16:07:35;32.00;;;21.73;;
19329;SDS011;9799;48.214;16.388;2022-10-19T16:10:58;13.70;;;9.97;;
19329;SDS011;9799;48.214;16.388;2022-10-19T16:14:19;7.67;;;5.80;;
19329;SDS011;9799;48.214;16.388;2022-10-19T16:17:42;8.03;;;4.77;;
19329;SDS011;9799;48.214;16.388;2022-10-19T16:21:04;10.37;;;4.03;;
19329;SDS011;9799;48.214;16.388;2022-10-19T16:24:26;6.87;;;4.33;;
19329;SDS011;9799;48.214;16.388;2022-10-19T16:27:48;11.43;;;4.00;;
19329;SDS011;9799;48.214;16.388;2022-10-19T16:31:10;6.90;;;4.10;;
19329;SDS011;9799;48.214;16.388;2022-10-19T16:34:33;5.03;;;3.83;;
19329;SDS011;9799;48.214;16.388;2022-10-19T16:37:55;5.03;;;3.37;;
19329;SDS011;9799;48.214;16.388;2022-10-19T16:41:17;5.60;;;3.20;;
19329;SDS011;9799;48.214;16.388;2022-10-19T16:44:38;5.40;;;3.23;;
19329;SDS011;9799;48.214;16.388;2022-10-19T16:47:59;6.73;;;3.93;;
19329;SDS011;9799;48.214;16.388;2022-10-19T16:51:26;3.97;;;3.30;;
19329;SDS011;9799;48.214;16.388;2022-10-19T16:54:49;5.63;;;3.87;;
19329;SDS011;9799;48.214;16.388;2022-10-19T16:58:10;4.23;;;2.83;;
19329;SDS011;9799;48.214;16.388;2022-10-19T17:01:32;7.27;;;2.90;;
19329;SDS011;9799;48.214;16.388;2022-10-19T17:04:54;5.87;;;3.10;;
19329;SDS011;9799;48.214;16.388;2022-10-19T17:08:18;9.33;;;3.17;;
19329;SDS011;9799;48.214;16.388;2022-10-19T17:11:39;6.60;;;3.10;;
19329;SDS011;9799;48.214;16.388;2022-10-19T17:15:01;5.23;;;3.20;;
19329;SDS011;9799;48.214;16.388;2022-10-19T17:18:23;3.47;;;2.87;;
19329;SDS011;9799;48.214;16.388;2022-10-19T17:21:45;3.90;;;3.13;;
19329;SDS011;9799;48.214;16.388;2022-10-19T17:25:08;5.47;;;3.40;;
19329;SDS011;9799;48.214;16.388;2022-10-19T17:28:33;5.93;;;3.03;;
19329;SDS011;9799;48.214;16.388;2022-10-19T17:31:56;6.93;;;3.63;;
19329;SDS011;9799;48.214;16.388;2022-10-19T17:35:19;6.93;;;3.67;;
19329;SDS011;9799;48.214;16.388;2022-10-19T17:38:41;4.33;;;3.23;;
19329;SDS011;9799;48.214;16.388;2022-10-19T17:42:05;7.30;;;5.10;;
19329;SDS011;9799;48.214;16.388;2022-10-19T17:45:27;8.97;;;5.70;;
19329;SDS011;9799;48.214;16.388;2022-10-19T17:48:49;5.63;;;4.50;;
19329;SDS011;9799;48.214;16.388;2022-10-19T17:52:12;4.70;;;3.50;;
19329;SDS011;9799;48.214;16.388;2022-10-19T17:55:35;6.73;;;3.43;;
19329;SDS011;9799;48.214;16.388;2022-10-19T17:58:59;26.70;;;18.70;;
19329;SDS011;9799;48.214;16.388;2022-10-19T18:02:22;8.97;;;7.77;;
19329;SDS011;9799;48.214;16.388;2022-10-19T18:05:53;8.00;;;4.27;;
19329;SDS011;9799;48.214;16.388;2022-10-19T18:09:20;9.63;;;3.90;;
19329;SDS011;9799;48.214;16.388;2022-10-19T18:12:42;6.63;;;3.50;;
19329;SDS011;9799;48.214;16.388;2022-10-19T18:16:09;4.03;;;3.67;;
19329;SDS011;9799;48.214;16.388;2022-10-19T18:19:33;5.40;;;3.67;;
19329;SDS011;9799;48.214;16.388;2022-10-19T18:22:55;4.50;;;3.43;;
19329;SDS011;9799;48.214;16.388;2022-10-19T18:26:20;5.03;;;3.60;;
19329;SDS011;9799;48.214;16.388;2022-10-19T18:29:43;5.93;;;3.53;;
19329;SDS011;9799;48.214;16.388;2022-10-19T18:33:09;4.33;;;3.70;;
19329;SDS011;9799;48.214;16.388;2022-10-19T18:36:31;9.33;;;5.50;;
19329;SDS011;9799;48.214;16.388;2022-10-19T18:39:54;5.60;;;3.60;;
19329;SDS011;9799;48.214;16.388;2022-10-19T18:43:17;6.80;;;3.73;;
19329;SDS011;9799;48.214;16.388;2022-10-19T18:46:39;4.33;;;3.50;;
19329;SDS011;9799;48.214;16.388;2022-10-19T18:50:04;8.60;;;3.57;;
19329;SDS011;9799;48.214;16.388;2022-10-19T18:53:27;5.93;;;3.87;;
19329;SDS011;9799;48.214;16.388;2022-10-19T18:56:51;5.80;;;3.67;;
19329;SDS011;9799;48.214;16.388;2022-10-19T19:00:14;4.40;;;3.70;;
19329;SDS011;9799;48.214;16.388;2022-10-19T19:03:39;4.27;;;3.77;;
19329;SDS011;9799;48.214;16.388;2022-10-19T19:07:04;4.53;;;3.90;;
19329;SDS011;9799;48.214;16.388;2022-10-19T19:10:28;5.47;;;3.47;;
19329;SDS011;9799;48.214;16.388;2022-10-19T19:13:50;5.27;;;3.07;;
19329;SDS011;9799;48.214;16.388;2022-10-19T19:17:13;8.77;;;3.80;;
19329;SDS011;9799;48.214;16.388;2022-10-19T19:20:38;5.23;;;3.03;;
19329;SDS011;9799;48.214;16.388;2022-10-19T19:24:04;3.53;;;3.10;;
19329;SDS011;9799;48.214;16.388;2022-10-19T19:27:27;6.13;;;3.57;;
19329;SDS011;9799;48.214;16.388;2022-10-19T19:30:50;7.63;;;5.37;;
19329;SDS011;9799;48.214;16.388;2022-10-19T19:34:14;4.73;;;3.83;;
19329;SDS011;9799;48.214;16.388;2022-10-19T19:37:36;5.50;;;3.57;;
19329;SDS011;9799;48.214;16.388;2022-10-19T19:41:01;6.63;;;3.70;;
19329;SDS011;9799;48.214;16.388;2022-10-19T19:44:24;9.63;;;3.27;;
19329;SDS011;9799;48.214;16.388;2022-10-19T19:47:48;4.20;;;2.83;;
19329;SDS011;9799;48.214;16.388;2022-10-19T19:51:10;7.10;;;3.20;;
19329;SDS011;9799;48.214;16.388;2022-10-19T19:54:34;4.30;;;3.60;;
19329;SDS011;9799;48.214;16.388;2022-10-19T19:57:58;5.10;;;3.00;;
19329;SDS011;9799;48.214;16.388;2022-10-19T20:01:20;6.77;;;3.60;;
19329;SDS011;9799;48.214;16.388;2022-10-19T20:04:42;6.10;;;3.70;;
19329;SDS011;9799;48.214;16.388;2022-10-19T20:08:04;9.43;;;3.30;;
19329;SDS011;9799;48.214;16.388;2022-10-19T20:11:27;6.20;;;3.97;;
19329;SDS011;9799;48.214;16.388;2022-10-19T20:14:53;4.23;;;3.50;;
19329;SDS011;9799;48.214;16.388;2022-10-19T20:18:15;5.17;;;3.17;;
19329;SDS011;9799;48.214;16.388;2022-10-19T20:21:37;7.67;;;3.27;;
19329;SDS011;9799;48.214;16.388;2022-10-19T20:24:59;5.67;;;3.57;;
19329;SDS011;9799;48.214;16.388;2022-10-19T20:28:21;4.97;;;3.47;;
19329;SDS011;9799;48.214;16.388;2022-10-19T20:31:45;7.17;;;4.90;;
19329;SDS011;9799;48.214;16.388;2022-10-19T20:35:09;6.07;;;4.07;;
19329;SDS011;9799;48.214;16.388;2022-10-19T20:38:31;6.33;;;3.37;;